createdAt,value
2023-01-02T00:01:23.471Z,258.20
2023-01-02T00:11:29.284Z,282.67
2023-01-02T00:21:32.810Z,235.60
2023-01-02T00:31:39.290Z,231.60
2023-01-02T00:41:42.813Z,234.90
2023-01-02T00:51:47.755Z,251.40
2023-01-02T01:01:51.580Z,240.00
2023-01-02T01:11:56.886Z,249.00
2023-01-02T01:22:00.510Z,246.43
2023-01-02T01:32:06.484Z,241.90
2023-01-02T01:42:14.041Z,247.27
2023-01-02T01:52:24.279Z,249.50
2023-01-02T02:02:30.220Z,305.60
2023-01-02T02:12:36.116Z,291.70
2023-01-02T02:23:37.936Z,248.27
2023-01-02T02:33:49.969Z,254.67
2023-01-02T02:44:11.119Z,240.13
2023-01-02T02:54:20.763Z,236.03
2023-01-02T03:04:25.037Z,230.93
2023-01-02T03:14:37.329Z,217.57
2023-01-02T03:24:42.875Z,234.10
2023-01-02T03:34:50.127Z,204.17
2023-01-02T03:45:00.539Z,220.17
2023-01-02T03:55:06.972Z,282.67
2023-01-02T04:05:19.871Z,245.07
2023-01-02T04:15:28.645Z,236.00
2023-01-02T04:25:36.321Z,233.93
2023-01-02T04:35:41.212Z,213.93
2023-01-02T04:45:44.630Z,235.23
2023-01-02T04:55:49.699Z,313.63
2023-01-02T05:06:00.671Z,239.87
2023-01-02T05:16:06.504Z,234.13
2023-01-02T05:26:12.547Z,223.83
2023-01-02T05:36:17.346Z,214.97
2023-01-02T05:46:22.235Z,207.23
2023-01-02T05:56:29.615Z,232.70
2023-01-02T06:06:36.637Z,244.47
2023-01-02T06:16:41.874Z,218.63
2023-01-02T06:26:45.446Z,206.23
2023-01-02T06:36:50.254Z,223.23
2023-01-02T06:46:53.664Z,207.20
2023-01-02T06:56:58.498Z,223.37
2023-01-02T07:07:02.453Z,211.37
2023-01-02T07:17:07.268Z,221.73
2023-01-02T07:27:10.750Z,221.37
2023-01-02T07:37:15.595Z,275.97
2023-01-02T07:47:19.031Z,262.73
2023-01-02T07:57:23.851Z,261.17
2023-01-02T08:07:28.192Z,253.70
2023-01-02T08:17:34.242Z,254.43
2023-01-02T08:27:37.841Z,258.50
2023-01-02T08:37:48.383Z,247.90
2023-01-02T08:47:55.031Z,251.40
2023-01-02T08:57:59.860Z,260.97
2023-01-02T09:08:04.210Z,257.10
2023-01-02T09:18:09.099Z,248.97
2023-01-02T09:28:12.558Z,248.07
2023-01-02T09:38:17.480Z,256.23
2023-01-02T09:48:22.308Z,257.00
2023-01-02T09:58:37.272Z,260.60
2023-01-02T10:08:55.874Z,268.77
2023-01-02T10:19:04.864Z,264.40
2023-01-02T10:29:18.794Z,258.80
2023-01-02T10:39:26.539Z,250.55
2023-01-02T10:49:30.556Z,283.25
2023-01-02T10:59:35.508Z,245.77
2023-01-02T11:09:39.044Z,245.82
2023-01-02T11:19:46.872Z,248.00
2023-01-02T11:29:51.755Z,246.95
2023-01-02T11:40:06.494Z,259.05
2023-01-02T11:50:14.170Z,243.95
2023-01-02T12:00:22.060Z,231.88
2023-01-02T12:10:44.095Z,224.75
2023-01-02T12:20:59.260Z,312.02
2023-01-02T12:31:25.458Z,251.65
2023-01-02T12:42:01.262Z,264.98
2023-01-02T12:52:09.006Z,250.73
2023-01-02T13:02:26.373Z,253.23
2023-01-02T13:12:33.514Z,253.25
2023-01-02T13:22:53.385Z,244.50
2023-01-02T13:32:59.297Z,253.82
2023-01-02T13:43:09.003Z,250.40
2023-01-02T13:53:33.817Z,251.60
2023-01-02T14:03:39.664Z,265.13
2023-01-02T14:13:46.887Z,273.03
2023-01-02T14:24:16.034Z,287.30
2023-01-02T14:34:24.479Z,295.80
2023-01-02T14:44:29.473Z,303.60
2023-01-02T14:54:44.697Z,313.23
2023-01-02T15:04:54.117Z,291.47
2023-01-02T15:14:58.111Z,296.07
2023-01-02T15:25:03.095Z,284.97
2023-01-02T15:35:21.581Z,287.23
2023-01-02T15:45:28.379Z,278.20
2023-01-02T15:55:36.757Z,268.93
2023-01-02T16:05:51.199Z,276.47
2023-01-02T16:16:15.440Z,291.13
2023-01-02T16:26:27.631Z,268.17
2023-01-02T16:36:31.547Z,272.50
2023-01-02T16:46:36.615Z,251.57
2023-01-02T16:56:40.086Z,283.23
2023-01-02T17:06:45.021Z,289.40
2023-01-02T17:16:48.501Z,263.07
2023-01-02T17:26:53.506Z,276.20
2023-01-02T17:36:58.165Z,295.53
2023-01-02T17:47:38.918Z,278.10
2023-01-02T17:57:27.072Z,273.87
2023-01-02T18:07:32.045Z,269.37
2023-01-02T18:17:35.549Z,276.40
2023-01-02T18:27:40.406Z,301.63
2023-01-02T18:37:44.253Z,267.87
2023-01-02T18:47:55.411Z,312.23
2023-01-02T18:58:02.937Z,298.03
2023-01-02T19:08:20.093Z,310.03
2023-01-02T19:18:35.434Z,312.07
2023-01-02T19:28:49.718Z,319.20
2023-01-02T19:38:53.862Z,365.93
2023-01-02T19:48:58.851Z,384.50
2023-01-02T19:59:02.287Z,354.50
2023-01-02T20:09:07.211Z,344.40
2023-01-02T20:19:11.380Z,317.10
2023-01-02T20:29:16.932Z,294.53
2023-01-02T20:39:21.188Z,300.37
2023-01-02T20:49:26.360Z,289.43
2023-01-02T20:59:29.835Z,405.97
2023-01-02T21:09:34.876Z,358.90
2023-01-02T21:19:38.368Z,526.57
2023-01-02T21:29:45.701Z,835.00
2023-01-02T21:39:49.861Z,512.67
2023-01-02T21:49:54.819Z,570.23
2023-01-02T21:59:58.524Z,688.77
2023-01-02T22:10:03.932Z,500.67
2023-01-02T22:20:09.165Z,332.90
2023-01-02T22:30:22.037Z,451.70
2023-01-02T22:40:29.415Z,495.97
2023-01-02T22:51:03.921Z,422.03
2023-01-02T23:01:19.808Z,263.53
2023-01-02T23:11:26.201Z,255.57
2023-01-02T23:21:32.637Z,256.60
2023-01-02T23:31:39.186Z,256.83
2023-01-02T23:41:45.204Z,227.80
2023-01-02T23:51:50.534Z,231.27
